Time;durP1;ratioP1;P1;durP2;ratioP2;P2;SDS_P1;SDS_P2;PMS_P1;PMS_P2;Temp;Humidity;BMP_temperature;BMP_pressure;BME280_temperature;BME280_humidity;BME280_pressure;Samples;Min_cycle;Max_cycle;Signal;HPM_P1;HPM_P2
2023/06/29 00:01:02;;;;;;;6.38;2.65;;;;;;;25.07;47.74;98689.06;5000488;28;20099;-84
2023/06/29 00:03:28;;;;;;;4.15;2.58;;;;;;;25.05;47.71;98691.97;5050785;28;20036;-84
2023/06/29 00:05:58;;;;;;;2.90;2.17;;;;;;;25.03;47.78;98686.00;5035007;28;20694;-83
2023/06/29 00:08:24;;;;;;;5.68;2.60;;;;;;;25.03;47.66;98695.84;5035073;28;20037;-84
2023/06/29 00:10:51;;;;;;;4.25;2.08;;;;;;;25.01;47.87;98704.06;5017866;28;20404;-83
2023/06/29 00:13:17;;;;;;;6.40;2.45;;;;;;;25.00;47.65;98707.81;5034422;28;20036;-84
2023/06/29 00:15:42;;;;;;;4.57;2.50;;;;;;;24.98;47.96;98709.03;5017910;28;20108;-75
2023/06/29 00:18:09;;;;;;;3.42;2.30;;;;;;;24.97;47.89;98712.72;5001694;28;20409;-77
2023/06/29 00:20:35;;;;;;;3.22;2.20;;;;;;;24.93;47.79;98712.34;5035489;28;20030;-77
2023/06/29 00:23:01;;;;;;;3.20;2.13;;;;;;;24.92;48.18;98711.53;5018384;28;20481;-77
2023/06/29 00:25:26;;;;;;;5.45;2.42;;;;;;;24.93;48.12;98712.34;5035427;28;20026;-77
2023/06/29 00:27:52;;;;;;;3.92;2.50;;;;;;;24.91;48.14;98709.06;5034216;28;20057;-77
2023/06/29 00:30:18;;;;;;;3.53;2.38;;;;;;;24.90;48.09;98704.75;5034067;28;20061;-77
2023/06/29 00:32:44;;;;;;;5.25;2.10;;;;;;;24.87;48.09;98703.31;5017479;28;20021;-77
2023/06/29 00:35:09;;;;;;;4.30;2.10;;;;;;;24.87;48.13;98697.16;5017382;28;20041;-77
2023/06/29 00:37:34;;;;;;;3.40;2.08;;;;;;;24.88;47.89;98698.81;5001319;28;20037;-77
2023/06/29 00:40:00;;;;;;;5.75;2.13;;;;;;;24.85;47.76;98688.53;5033824;28;20037;-78
2023/06/29 00:42:25;;;;;;;2.80;1.70;;;;;;;24.89;47.87;98689.75;5017365;28;20033;-77
2023/06/29 00:44:51;;;;;;;2.67;1.75;;;;;;;24.89;47.63;98682.56;5034036;28;20496;-77
2023/06/29 00:47:16;;;;;;;3.15;1.98;;;;;;;24.89;47.72;98687.91;5017479;28;20030;-77
2023/06/29 00:49:42;;;;;;;2.70;1.80;;;;;;;24.90;47.77;98686.06;5017250;28;20036;-77
2023/06/29 00:52:08;;;;;;;5.07;1.90;;;;;;;24.88;47.79;98696.13;5016776;28;20048;-77
2023/06/29 00:54:33;;;;;;;4.10;2.00;;;;;;;24.88;47.71;98701.47;5000830;28;20373;-77
2023/06/29 00:56:59;;;;;;;2.58;1.73;;;;;;;24.88;47.71;98698.81;5017911;28;20481;-77
2023/06/29 00:59:25;;;;;;;3.70;1.95;;;;;;;24.84;47.70;98703.75;5017178;28;20108;-77
2023/06/29 01:01:51;;;;;;;4.22;1.80;;;;;;;24.88;47.65;98714.81;5034759;28;20119;-77
2023/06/29 01:04:22;;;;;;;3.45;2.00;;;;;;;24.82;47.93;98703.13;5034687;28;20088;-77
2023/06/29 01:07:17;;;;;;;3.83;1.80;;;;;;;24.85;47.74;98694.69;5002339;28;20095;-77
2023/06/29 01:09:44;;;;;;;3.28;2.00;;;;;;;24.82;47.84;98688.97;5012786;28;20164;-77
2023/06/29 01:12:11;;;;;;;9.10;2.00;;;;;;;24.82;47.90;98694.31;4996620;28;20041;-77
2023/06/29 01:14:38;;;;;;;3.70;1.98;;;;;;;24.78;47.80;98712.59;4980026;28;20120;-77
2023/06/29 01:17:04;;;;;;;2.92;1.88;;;;;;;24.79;47.92;98722.22;4995949;28;20034;-77
2023/06/29 01:19:29;;;;;;;6.07;2.17;;;;;;;24.79;47.95;98722.22;5012479;28;20045;-77
2023/06/29 01:22:04;;;;;;;2.50;1.80;;;;;;;24.78;47.78;98717.94;4995505;28;20429;-77
2023/06/29 01:24:39;;;;;;;4.53;1.80;;;;;;;24.73;48.22;98718.56;5012999;28;20540;-77
2023/06/29 01:27:06;;;;;;;3.00;1.80;;;;;;;24.75;48.04;98726.34;4996566;28;20045;-77
2023/06/29 01:29:32;;;;;;;3.33;1.85;;;;;;;24.72;48.09;98732.94;4995844;28;20086;-77
2023/06/29 01:32:03;;;;;;;6.10;2.05;;;;;;;24.70;48.57;98729.66;4979156;28;20037;-77
2023/06/29 01:34:31;;;;;;;4.15;2.20;;;;;;;24.68;48.29;98728.22;4996132;28;20540;-77
2023/06/29 01:37:02;;;;;;;5.53;2.10;;;;;;;24.66;48.27;98747.09;4995942;28;20033;-77
2023/06/29 01:39:29;;;;;;;2.20;1.73;;;;;;;24.65;48.14;98734.78;4996527;28;20056;-77
2023/06/29 01:41:54;;;;;;;3.88;2.10;;;;;;;24.64;48.21;98732.34;4995633;28;20034;-78
2023/06/29 01:44:20;;;;;;;2.58;1.85;;;;;;;24.60;48.26;98739.91;4995958;28;20060;-77
2023/06/29 01:46:46;;;;;;;4.78;2.00;;;;;;;24.62;48.45;98740.56;5014226;28;20148;-77
2023/06/29 01:49:12;;;;;;;4.00;2.03;;;;;;;24.59;48.51;98737.47;4999768;28;20040;-77
2023/06/29 01:51:37;;;;;;;6.35;1.90;;;;;;;24.62;48.36;98734.38;5016208;28;20029;-77
2023/06/29 01:54:03;;;;;;;4.20;1.83;;;;;;;24.62;48.17;98726.38;5016191;28;20091;-77
2023/06/29 01:56:28;;;;;;;3.15;1.73;;;;;;;24.63;48.17;98712.00;5016255;28;20030;-76
2023/06/29 01:58:54;;;;;;;4.72;2.00;;;;;;;24.61;48.45;98698.06;5032534;28;20037;-77
2023/06/29 02:01:19;;;;;;;4.30;1.92;;;;;;;24.64;48.29;98703.00;5015938;28;20030;-77
2023/06/29 02:03:45;;;;;;;3.97;1.80;;;;;;;24.65;48.42;98709.94;5015855;28;20418;-77
2023/06/29 02:06:10;;;;;;;3.70;1.90;;;;;;;24.63;48.22;98696.00;5032254;28;20033;-78
2023/06/29 02:08:37;;;;;;;3.38;1.98;;;;;;;24.65;48.19;98699.28;5015871;28;20038;-77
2023/06/29 02:11:03;;;;;;;3.25;2.05;;;;;;;24.67;48.14;98698.03;5015827;28;20033;-77
2023/06/29 02:13:29;;;;;;;6.50;2.17;;;;;;;24.66;48.38;98700.91;5015862;28;20547;-77
2023/06/29 02:15:54;;;;;;;6.05;2.10;;;;;;;24.65;48.26;98705.41;5032122;28;20037;-77
2023/06/29 02:18:20;;;;;;;2.72;1.85;;;;;;;24.64;48.34;98701.13;5033872;28;20041;-77
2023/06/29 02:20:45;;;;;;;3.25;2.10;;;;;;;24.63;48.23;98693.34;4999249;28;20480;-77
2023/06/29 02:23:10;;;;;;;5.68;1.88;;;;;;;24.60;48.08;98694.56;5033320;28;20087;-77
2023/06/29 02:25:36;;;;;;;7.05;2.28;;;;;;;24.55;47.99;98694.34;5031582;28;20029;-77
2023/06/29 02:28:02;;;;;;;3.17;1.90;;;;;;;24.58;47.92;98706.50;5015109;28;20042;-77
2023/06/29 02:30:27;;;;;;;3.60;1.90;;;;;;;24.56;48.09;98698.66;5015478;28;20057;-78
2023/06/29 02:32:53;;;;;;;3.10;2.00;;;;;;;24.54;47.88;98690.88;5015096;28;20207;-78
2023/06/29 02:35:18;;;;;;;4.75;2.10;;;;;;;24.51;47.98;98698.44;4998987;28;20072;-78
2023/06/29 02:37:44;;;;;;;4.70;1.92;;;;;;;24.51;47.84;98693.94;5032129;28;20076;-78
2023/06/29 02:40:09;;;;;;;3.85;1.75;;;;;;;24.49;47.88;98695.97;5015342;28;20385;-78
2023/06/29 02:42:36;;;;;;;5.82;1.83;;;;;;;24.45;48.09;98693.94;5032359;28;20025;-78
2023/06/29 02:45:02;;;;;;;4.43;2.00;;;;;;;24.44;48.03;98677.13;5015223;28;20049;-78
2023/06/29 02:47:28;;;;;;;5.30;1.70;;;;;;;24.43;48.08;98666.66;5027238;28;20027;-78
2023/06/29 02:49:54;;;;;;;4.28;1.73;;;;;;;24.41;48.19;98693.53;5052794;28;20028;-78
2023/06/29 02:52:20;;;;;;;5.13;2.05;;;;;;;24.39;48.06;98690.28;5051576;28;20029;-78
2023/06/29 02:54:46;;;;;;;6.03;1.80;;;;;;;24.34;48.00;98703.41;5051289;28;20503;-78
2023/06/29 02:57:11;;;;;;;4.13;1.80;;;;;;;24.33;47.93;98707.09;5051354;28;20048;-78
2023/06/29 02:59:38;;;;;;;4.22;2.00;;;;;;;24.36;47.93;98717.34;5051287;28;20037;-78
2023/06/29 03:02:03;;;;;;;5.75;1.80;;;;;;;24.31;48.02;98707.31;5034842;28;20029;-78
2023/06/29 03:04:29;;;;;;;2.83;1.70;;;;;;;24.36;47.98;98709.34;5051096;28;20043;-78
2023/06/29 03:06:54;;;;;;;5.97;1.90;;;;;;;24.37;48.00;98711.00;5034503;28;20056;-78
2023/06/29 03:09:20;;;;;;;5.68;1.73;;;;;;;24.36;47.98;98717.34;5034170;28;20037;-78
2023/06/29 03:11:45;;;;;;;2.97;1.60;;;;;;;24.37;47.72;98719.00;5051209;28;20154;-77
2023/06/29 03:14:11;;;;;;;4.18;1.75;;;;;;;24.39;47.70;98709.75;5050787;28;20036;-80
2023/06/29 03:16:36;;;;;;;3.38;1.83;;;;;;;24.41;47.89;98704.22;5034030;28;20404;-85
2023/06/29 03:19:02;;;;;;;5.65;1.90;;;;;;;24.53;48.61;98715.09;5050742;28;20080;-80
2023/06/29 03:21:27;;;;;;;5.85;1.73;;;;;;;24.63;48.83;98712.81;5034122;28;20032;-78
2023/06/29 03:23:53;;;;;;;8.25;2.00;;;;;;;24.72;48.65;98713.44;5017653;28;20131;-78
2023/06/29 03:26:18;;;;;;;5.93;1.90;;;;;;;24.85;48.65;98718.72;5034014;28;20033;-78
2023/06/29 03:28:43;;;;;;;5.43;1.70;;;;;;;24.83;48.45;98720.78;5050120;28;20063;-76
2023/06/29 03:31:09;;;;;;;5.82;1.75;;;;;;;24.91;48.33;98714.41;5033872;28;20041;-76
2023/06/29 03:33:34;;;;;;;2.75;1.70;;;;;;;24.91;48.33;98714.41;5050504;28;20047;-75
2023/06/29 03:36:00;;;;;;;3.03;1.80;;;;;;;24.95;48.16;98718.28;5050708;28;20025;-75
2023/06/29 03:38:25;;;;;;;4.90;1.92;;;;;;;24.95;48.39;98709.44;5034011;28;20048;-76
2023/06/29 03:40:51;;;;;;;2.33;1.60;;;;;;;25.00;48.21;98720.31;5035417;28;20112;-75
2023/06/29 03:43:16;;;;;;;3.28;1.85;;;;;;;25.01;48.48;98725.44;5055892;28;20037;-76
2023/06/29 03:45:42;;;;;;;6.70;1.77;;;;;;;25.02;48.31;98734.28;5038486;28;20036;-75
2023/06/29 03:48:07;;;;;;;4.28;1.67;;;;;;;25.03;48.54;98738.59;5037650;28;20053;-78
2023/06/29 03:50:33;;;;;;;4.18;1.73;;;;;;;25.02;48.82;98732.44;5037875;28;20037;-77
2023/06/29 03:52:58;;;;;;;3.75;1.63;;;;;;;25.13;48.80;98735.47;5021194;28;20067;-77
2023/06/29 03:55:24;;;;;;;6.80;1.60;;;;;;;25.14;48.51;98734.44;5055074;28;20033;-80
2023/06/29 03:57:50;;;;;;;2.92;1.80;;;;;;;25.21;48.51;98732.56;5021375;28;20091;-84
2023/06/29 04:00:16;;;;;;;4.32;1.73;;;;;;;25.28;48.35;98736.06;5054288;28;20188;-83
2023/06/29 04:02:41;;;;;;;27.42;2.00;;;;;;;25.27;48.65;98721.84;5037974;28;20400;-80
2023/06/29 04:05:07;;;;;;;5.72;1.58;;;;;;;25.25;48.39;98729.28;5037784;28;20025;-83
2023/06/29 04:07:33;;;;;;;10.05;1.90;;;;;;;25.27;48.34;98731.72;5054000;28;20060;-72
2023/06/29 04:09:58;;;;;;;9.63;1.95;;;;;;;25.26;48.41;98740.75;5055530;28;20075;-77
2023/06/29 04:12:24;;;;;;;5.22;1.88;;;;;;;25.25;48.25;98736.44;5051859;28;20033;-77
2023/06/29 04:14:49;;;;;;;3.28;1.83;;;;;;;25.33;47.86;98748.78;5035573;28;20025;-77
2023/06/29 04:17:15;;;;;;;8.43;1.70;;;;;;;25.41;47.62;98752.03;5052088;28;20037;-77
2023/06/29 04:19:40;;;;;;;8.48;1.77;;;;;;;25.52;47.48;98747.84;5051724;28;20403;-76
2023/06/29 04:22:06;;;;;;;7.40;1.88;;;;;;;25.64;47.02;98751.47;5051720;28;20114;-77
2023/06/29 04:24:31;;;;;;;6.03;1.88;;;;;;;25.81;46.56;98743.78;5019374;28;20036;-76
2023/06/29 04:26:57;;;;;;;4.45;1.70;;;;;;;27.35;42.92;98736.19;5036901;28;20044;-76
2023/06/29 04:29:22;;;;;;;4.72;1.80;;;;;;;29.13;39.23;98745.28;5053659;28;20049;-77
2023/06/29 04:31:48;;;;;;;3.97;1.80;;;;;;;30.40;36.46;98745.19;5055134;28;20545;-77
2023/06/29 04:34:17;;;;;;;3.58;1.63;;;;;;;29.78;37.11;98753.00;5037110;28;20036;-77
2023/06/29 04:36:45;;;;;;;2.40;1.50;;;;;;;29.80;37.38;98746.59;5037497;28;20094;-78
2023/06/29 04:39:13;;;;;;;3.60;1.60;;;;;;;29.78;37.29;98758.38;5053855;28;20112;-78
2023/06/29 04:41:41;;;;;;;5.25;1.95;;;;;;;29.98;37.16;98749.03;5037890;28;20145;-77
2023/06/29 04:44:08;;;;;;;4.85;1.67;;;;;;;31.62;34.19;98755.91;5053692;28;20033;-77
2023/06/29 04:46:40;;;;;;;3.58;1.95;;;;;;;32.81;31.55;98763.91;5037315;28;20033;-77
2023/06/29 04:49:06;;;;;;;3.10;1.75;;;;;;;34.15;29.19;98766.97;5021453;28;20569;-77
2023/06/29 04:51:35;;;;;;;5.45;2.40;;;;;;;35.26;27.64;98762.72;5052802;28;20033;-78
2023/06/29 04:54:01;;;;;;;6.70;2.10;;;;;;;35.96;26.95;98757.16;5030877;28;20074;-76
2023/06/29 04:56:27;;;;;;;16.17;1.70;;;;;;;36.85;25.79;98769.66;5046001;28;20041;-76
2023/06/29 04:58:52;;;;;;;9.13;1.63;;;;;;;37.64;24.79;98776.53;5034683;28;20025;-74
2023/06/29 05:01:17;;;;;;;9.00;1.77;;;;;;;38.32;23.89;98788.84;5016381;28;20046;-74
2023/06/29 05:03:43;;;;;;;5.20;1.60;;;;;;;38.82;23.07;98781.97;5016339;28;20084;-74
2023/06/29 05:06:08;;;;;;;4.00;1.88;;;;;;;39.23;22.24;98775.69;5033328;28;20443;-74
2023/06/29 05:08:34;;;;;;;3.22;1.70;;;;;;;39.61;21.73;98775.41;5017393;28;20041;-74
2023/06/29 05:10:59;;;;;;;3.80;1.25;;;;;;;40.09;20.88;98776.75;5016791;28;20040;-75
2023/06/29 05:13:25;;;;;;;5.80;1.60;;;;;;;40.65;20.51;98788.19;5016198;28;20038;-76
2023/06/29 05:15:51;;;;;;;3.58;1.48;;;;;;;40.94;19.79;98773.97;5038985;28;20029;-76
2023/06/29 05:18:16;;;;;;;7.07;1.60;;;;;;;41.06;19.88;98773.38;5052038;28;20112;-77
2023/06/29 05:20:42;;;;;;;6.45;1.50;;;;;;;41.58;19.48;98772.66;5052207;28;20033;-76
2023/06/29 05:23:10;;;;;;;5.80;1.73;;;;;;;41.68;19.02;98771.53;5051280;28;20037;-76
2023/06/29 05:25:36;;;;;;;4.90;1.30;;;;;;;41.89;18.76;98774.44;5019269;28;20519;-76
2023/06/29 05:28:02;;;;;;;15.07;1.60;;;;;;;41.73;18.59;98782.34;5015868;28;20134;-77
2023/06/29 05:30:27;;;;;;;6.93;1.58;;;;;;;41.68;18.69;98785.22;5015433;28;20284;-77
2023/06/29 05:32:53;;;;;;;9.27;1.53;;;;;;;41.80;18.65;98787.34;5015264;28;20031;-76
2023/06/29 05:35:18;;;;;;;11.90;1.70;;;;;;;41.15;19.22;98771.47;5032355;28;20025;-76
2023/06/29 05:37:46;;;;;;;13.30;1.73;;;;;;;42.04;18.36;98776.66;5016196;28;20025;-75
2023/06/29 05:40:11;;;;;;;8.57;1.65;;;;;;;42.30;18.15;98773.91;5005522;28;20041;-75
2023/06/29 05:42:37;;;;;;;13.27;1.80;;;;;;;41.51;19.34;98773.13;5033569;28;20110;-75
2023/06/29 05:45:03;;;;;;;8.77;1.93;;;;;;;40.87;19.34;98763.50;5033661;28;20492;-76
2023/06/29 05:47:28;;;;;;;5.50;1.75;;;;;;;40.67;19.43;98767.59;4999896;28;20132;-76
2023/06/29 05:49:54;;;;;;;10.50;1.70;;;;;;;40.80;19.79;98770.53;5033937;28;20052;-77
2023/06/29 05:52:19;;;;;;;6.43;1.90;;;;;;;40.92;19.01;98759.03;5015829;28;20065;-77
2023/06/29 05:54:45;;;;;;;6.72;1.80;;;;;;;41.81;18.13;98764.28;5022865;28;20033;-79
2023/06/29 05:57:10;;;;;;;7.73;1.77;;;;;;;41.25;18.16;98761.34;5035434;28;20036;-77
2023/06/29 05:59:36;;;;;;;6.05;1.75;;;;;;;41.58;17.86;98765.25;5051084;28;20052;-76
2023/06/29 06:02:02;;;;;;;5.05;1.60;;;;;;;41.28;18.06;98760.69;5051646;28;20037;-77
2023/06/29 06:04:28;;;;;;;9.00;2.03;;;;;;;41.52;17.38;98772.00;5052702;28;20025;-78
2023/06/29 06:06:53;;;;;;;3.58;1.70;;;;;;;42.16;17.14;98772.47;5035785;28;20102;-79
2023/06/29 06:09:19;;;;;;;6.60;1.80;;;;;;;42.51;16.60;98778.69;5035980;28;20100;-77
2023/06/29 06:11:44;;;;;;;5.03;1.77;;;;;;;42.86;16.55;98784.03;5053167;28;20392;-77
2023/06/29 06:14:10;;;;;;;6.03;1.50;;;;;;;43.11;16.27;98782.31;5053030;28;20060;-80
2023/06/29 06:16:35;;;;;;;2.67;1.43;;;;;;;43.29;15.86;98784.94;5031360;28;20048;-78
2023/06/29 06:19:01;;;;;;;4.53;1.70;;;;;;;43.41;16.02;98778.72;5031826;28;20042;-76
2023/06/29 06:21:26;;;;;;;5.10;1.40;;;;;;;43.58;15.47;98781.31;5015535;28;20465;-78
2023/06/29 06:23:52;;;;;;;2.93;1.50;;;;;;;43.69;16.23;98776.22;5031817;28;20540;-82
2023/06/29 06:26:18;;;;;;;6.40;2.13;;;;;;;43.85;16.57;98773.69;5032538;28;20037;-81
2023/06/29 06:28:43;;;;;;;6.03;1.40;;;;;;;44.00;16.35;98781.31;5031577;28;20061;-81
2023/06/29 06:31:09;;;;;;;10.50;2.37;;;;;;;43.98;16.33;98783.59;5027961;28;20037;-78
2023/06/29 06:33:34;;;;;;;5.10;2.23;;;;;;;43.91;16.10;98778.63;5048232;28;20056;-77
2023/06/29 06:36:00;;;;;;;5.47;2.23;;;;;;;43.84;15.54;98777.56;5032181;28;20026;-77
2023/06/29 06:38:25;;;;;;;6.63;2.03;;;;;;;43.89;16.05;98769.13;5031660;28;20116;-81
2023/06/29 06:40:52;;;;;;;6.03;2.10;;;;;;;43.95;15.83;98772.44;5013718;28;20581;-78
2023/06/29 06:43:18;;;;;;;;;;;;;;;43.82;15.52;98768.88;5017510;28;20142;-79
2023/06/29 06:45:44;;;;;;;9.00;1.80;;;;;;;43.88;15.50;98762.00;5042315;28;20383;-79
2023/06/29 06:48:09;;;;;;;5.60;1.48;;;;;;;43.90;15.20;98762.47;5034646;28;20036;-79
2023/06/29 06:50:35;;;;;;;2.93;1.23;;;;;;;43.97;15.33;98759.97;5051705;28;20037;-82
2023/06/29 06:53:00;;;;;;;3.80;1.30;;;;;;;44.00;15.49;98762.06;5034991;28;20428;-78
2023/06/29 06:55:26;;;;;;;4.50;1.30;;;;;;;44.02;15.86;98756.22;5018355;28;20040;-79
2023/06/29 06:57:52;;;;;;;3.00;1.10;;;;;;;44.00;15.88;98753.00;5034717;28;20531;-76
2023/06/29 07:00:18;;;;;;;2.87;1.23;;;;;;;42.81;16.69;98754.84;5041462;28;20030;-77
2023/06/29 07:02:43;;;;;;;3.33;1.20;;;;;;;42.94;16.39;98769.44;5039588;28;20094;-79
2023/06/29 07:05:10;;;;;;;9.33;1.40;;;;;;;43.13;16.06;98765.50;5014325;28;20057;-77
2023/06/29 07:07:35;;;;;;;1.60;0.77;;;;;;;43.15;15.98;98768.69;5014953;28;20048;-79
2023/06/29 07:10:01;;;;;;;5.77;1.50;;;;;;;43.05;15.86;98760.84;5014937;28;20037;-77
2023/06/29 07:12:26;;;;;;;2.90;1.00;;;;;;;43.07;15.38;98759.38;4999020;28;20056;-76
2023/06/29 07:14:52;;;;;;;3.97;1.10;;;;;;;42.99;15.02;98765.75;5031220;28;20507;-77
2023/06/29 07:17:17;;;;;;;3.20;0.83;;;;;;;42.96;15.80;98769.91;5010283;28;20567;-77
2023/06/29 07:19:43;;;;;;;5.23;1.00;;;;;;;42.90;16.07;98764.94;5031882;28;20064;-82
2023/06/29 07:22:08;;;;;;;2.30;0.80;;;;;;;42.78;15.84;98762.91;4998528;28;20120;-85
2023/06/29 07:24:34;;;;;;;2.50;0.90;;;;;;;42.73;16.06;98765.84;5014921;28;20033;-84
2023/06/29 07:27:00;;;;;;;2.27;0.87;;;;;;;42.65;15.70;98753.78;5015156;28;20029;-83
2023/06/29 07:29:26;;;;;;;1.57;0.80;;;;;;;42.60;15.72;98764.94;5014824;28;20046;-82
2023/06/29 07:31:52;;;;;;;3.20;1.00;;;;;;;42.52;16.18;98763.00;5014841;28;20134;-82
2023/06/29 07:34:22;;;;;;;3.42;1.20;;;;;;;41.79;16.39;98759.13;5031747;28;20092;-78
2023/06/29 07:36:48;;;;;;;6.95;1.58;;;;;;;41.74;18.67;98757.38;5031801;28;20025;-83
2023/06/29 07:39:13;;;;;;;4.05;1.15;;;;;;;41.68;17.97;98764.09;5032688;28;20374;-81
2023/06/29 07:41:39;;;;;;;5.65;1.10;;;;;;;41.66;17.77;98755.41;5032777;28;20083;-83
2023/06/29 07:44:04;;;;;;;4.82;1.00;;;;;;;41.67;17.92;98757.03;4998199;28;20469;-80
2023/06/29 07:46:31;;;;;;;3.78;0.98;;;;;;;41.64;17.34;98757.69;5042826;28;20033;-80
2023/06/29 07:48:58;;;;;;;2.88;0.80;;;;;;;41.63;16.77;98758.00;5050428;28;20033;-78
2023/06/29 07:51:24;;;;;;;3.67;1.02;;;;;;;41.21;17.30;98761.16;5050874;28;20036;-82
2023/06/29 07:53:53;;;;;;;1.80;0.88;;;;;;;41.31;16.43;98746.38;5017961;28;20444;-81
2023/06/29 07:56:19;;;;;;;25.23;1.60;;;;;;;40.97;20.01;98756.94;5049818;28;20041;-86
2023/06/29 07:58:45;;;;;;;11.38;2.75;;;;;;;40.14;21.61;98752.06;5049404;28;20033;-79
2023/06/29 08:01:10;;;;;;;4.82;1.23;;;;;;;40.15;21.55;98757.19;5017729;28;20052;-79
2023/06/29 08:03:36;;;;;;;7.28;1.45;;;;;;;39.88;21.61;98765.50;5033747;28;20443;-78
2023/06/29 08:06:02;;;;;;;12.85;1.45;;;;;;;39.65;21.67;98761.94;5034028;28;20645;-77
2023/06/29 08:08:28;;;;;;;5.82;1.20;;;;;;;39.57;22.00;98761.59;5050759;28;20095;-81
2023/06/29 08:10:54;;;;;;;9.88;1.30;;;;;;;39.48;21.45;98759.88;5034831;28;20033;-83
2023/06/29 08:13:20;;;;;;;2.63;1.05;;;;;;;39.56;21.06;98757.22;5050542;28;20033;-78
2023/06/29 08:15:45;;;;;;;1.90;0.98;;;;;;;39.64;19.50;98750.22;5029407;28;20037;-83
2023/06/29 08:18:11;;;;;;;3.85;1.05;;;;;;;39.69;18.98;98754.75;5024894;28;20555;-81
2023/06/29 08:20:36;;;;;;;2.67;0.88;;;;;;;39.72;18.70;98754.16;5046721;28;20495;-80
2023/06/29 08:23:02;;;;;;;3.08;1.02;;;;;;;39.75;18.64;98757.06;5043815;28;20449;-80
2023/06/29 08:25:27;;;;;;;2.50;0.90;;;;;;;39.79;18.83;98760.78;5039211;28;20039;-80
2023/06/29 08:27:53;;;;;;;4.28;1.10;;;;;;;39.76;18.37;98744.22;5057667;28;20040;-83
2023/06/29 08:30:18;;;;;;;4.40;1.10;;;;;;;39.78;18.36;98755.63;5028785;28;20044;-82
2023/06/29 08:32:47;;;;;;;2.85;0.93;;;;;;;39.73;18.16;98758.50;5071456;28;20048;-82
2023/06/29 08:35:13;;;;;;;4.30;0.90;;;;;;;39.69;18.52;98755.56;5056171;28;20428;-79
2023/06/29 08:37:39;;;;;;;1.88;0.80;;;;;;;39.62;18.28;98745.06;5053866;28;20056;-82
2023/06/29 08:40:05;;;;;;;1.52;0.80;;;;;;;39.57;18.28;98750.66;5049706;28;20040;-81
2023/06/29 08:42:30;;;;;;;4.03;1.17;;;;;;;39.42;20.22;98743.59;5035643;28;20481;-82
2023/06/29 08:44:56;;;;;;;6.60;1.33;;;;;;;39.06;19.41;98751.72;5017213;28;20044;-79
2023/06/29 08:47:21;;;;;;;2.90;1.10;;;;;;;39.20;19.33;98751.75;5001530;28;20042;-85
2023/06/29 08:49:47;;;;;;;2.95;1.10;;;;;;;39.17;19.14;98739.53;5034148;28;20040;-86
2023/06/29 08:52:15;;;;;;;3.65;1.20;;;;;;;39.22;18.88;98738.59;5034266;28;20041;-81
2023/06/29 08:54:41;;;;;;;3.30;1.00;;;;;;;39.18;18.71;98743.84;5017439;28;20389;-80
2023/06/29 08:57:07;;;;;;;2.53;0.80;;;;;;;39.18;19.02;98741.13;5001068;28;20029;-80
2023/06/29 08:59:32;;;;;;;1.98;0.98;;;;;;;39.11;18.61;98737.19;5017821;28;20048;-79
2023/06/29 09:01:58;;;;;;;2.17;0.88;;;;;;;38.93;18.43;98742.44;5016790;28;20120;-79
2023/06/29 09:04:24;;;;;;;3.63;0.85;;;;;;;38.88;18.81;98748.81;5000757;28;20040;-80
2023/06/29 09:06:53;;;;;;;2.83;0.90;;;;;;;38.84;19.00;98745.09;5017501;28;20136;-80
2023/06/29 09:09:19;;;;;;;1.80;1.00;;;;;;;38.67;18.90;98742.16;5017472;28;20044;-79
2023/06/29 09:11:45;;;;;;;4.38;1.15;;;;;;;38.20;19.57;98742.19;5017092;28;20029;-78
2023/06/29 09:14:10;;;;;;;1.60;0.80;;;;;;;37.77;19.51;98745.06;5000588;28;20098;-80
2023/06/29 09:16:36;;;;;;;2.17;0.90;;;;;;;37.34;19.90;98732.31;5033698;28;20033;-81
2023/06/29 09:19:03;;;;;;;1.73;0.88;;;;;;;37.06;20.62;98736.75;5000398;28;20033;-78
2023/06/29 09:21:29;;;;;;;4.43;0.82;;;;;;;37.11;20.53;98734.75;5016746;28;20037;-80
2023/06/29 09:23:58;;;;;;;2.25;0.95;;;;;;;37.03;20.28;98723.72;5016956;28;20037;-78
2023/06/29 09:26:26;;;;;;;1.63;0.80;;;;;;;36.78;20.43;98731.09;5016570;28;20052;-79
2023/06/29 09:28:56;;;;;;;1.75;0.77;;;;;;;36.38;21.04;98728.50;5000304;28;20116;-80
2023/06/29 09:31:21;;;;;;;4.90;1.20;;;;;;;36.05;21.20;98730.16;5016918;28;20033;-79
2023/06/29 09:33:47;;;;;;;4.00;1.30;;;;;;;35.90;21.64;98731.13;5033393;28;20473;-84
2023/06/29 09:36:12;;;;;;;2.95;1.00;;;;;;;35.84;21.37;98724.91;5000276;28;20471;-80
2023/06/29 09:38:38;;;;;;;3.17;1.00;;;;;;;35.79;21.72;98735.81;5033917;28;20382;-79
2023/06/29 09:41:03;;;;;;;1.73;1.05;;;;;;;35.88;22.02;98733.28;5034131;28;20033;-80
2023/06/29 09:43:29;;;;;;;1.60;0.98;;;;;;;35.77;22.02;98719.00;4999855;28;20032;-79
2023/06/29 09:46:13;;;;;;;1.65;1.00;;;;;;;35.64;20.92;98720.41;5000313;28;20396;-80
2023/06/29 09:48:44;;;;;;;2.35;0.82;;;;;;;35.49;21.12;98723.25;4999825;28;20061;-80
2023/06/29 09:51:09;;;;;;;1.83;0.90;;;;;;;35.39;21.18;98723.28;5033223;28;20540;-80
2023/06/29 09:53:35;;;;;;;2.58;1.00;;;;;;;35.58;21.33;98726.16;5034128;28;20042;-79
2023/06/29 09:56:02;;;;;;;8.43;1.00;;;;;;;35.57;21.07;98721.84;5032817;28;20022;-80
2023/06/29 09:58:29;;;;;;;1.83;0.98;;;;;;;35.51;21.63;98719.13;5016170;28;20034;-80
2023/06/29 10:00:58;;;;;;;2.70;1.02;;;;;;;35.37;21.83;98711.91;5016336;28;20030;-80
2023/06/29 10:03:25;;;;;;;1.60;0.80;;;;;;;35.37;21.53;98707.28;5016507;28;20083;-80
2023/06/29 10:05:51;;;;;;;2.63;0.90;;;;;;;35.42;21.81;98717.31;5016021;28;20548;-81
2023/06/29 10:08:17;;;;;;;2.83;0.82;;;;;;;35.22;21.66;98704.63;4999511;28;20048;-79
2023/06/29 10:10:42;;;;;;;2.80;1.15;;;;;;;35.17;21.10;98701.97;5015850;28;20033;-80
2023/06/29 10:13:08;;;;;;;1.60;0.73;;;;;;;35.14;20.93;98706.88;5015796;28;20409;-79
2023/06/29 10:15:35;;;;;;;3.67;1.00;;;;;;;34.93;21.04;98700.75;4999914;28;20037;-80
2023/06/29 10:18:06;;;;;;;1.80;0.90;;;;;;;34.81;21.21;98711.09;4999990;28;20037;-80
2023/06/29 10:20:31;;;;;;;2.33;1.10;;;;;;;34.76;21.46;98701.06;5032004;28;20109;-79
2023/06/29 10:22:59;;;;;;;2.67;0.88;;;;;;;34.73;20.98;98706.22;5000635;28;20137;-80
2023/06/29 10:25:24;;;;;;;1.67;0.70;;;;;;;34.63;21.32;98714.38;5032038;28;20029;-78
2023/06/29 10:27:51;;;;;;;2.30;0.85;;;;;;;34.66;21.42;98698.34;5015697;28;20038;-79
2023/06/29 10:30:21;;;;;;;;;;;;;;;34.65;21.43;98696.75;5015991;28;20129;-79
2023/06/29 10:32:48;;;;;;;1.95;1.00;;;;;;;34.67;21.71;98700.00;5033269;28;20277;-79
2023/06/29 10:35:15;;;;;;;3.13;0.90;;;;;;;34.69;21.86;98697.81;5015332;28;20128;-78
2023/06/29 10:37:41;;;;;;;2.42;0.80;;;;;;;34.73;22.40;98703.50;5015293;28;20109;-80
2023/06/29 10:40:10;;;;;;;2.47;0.90;;;;;;;34.74;22.25;98699.69;5015313;28;20159;-80
2023/06/29 10:42:38;;;;;;;1.50;0.93;;;;;;;34.75;22.05;98698.63;5031680;28;20264;-79
2023/06/29 10:45:24;;;;;;;1.38;0.82;;;;;;;34.77;21.60;98691.84;5031426;28;20041;-79
2023/06/29 10:47:55;;;;;;;3.90;1.00;;;;;;;34.68;21.95;98698.06;5028995;28;20038;-79
2023/06/29 10:50:31;;;;;;;1.85;0.80;;;;;;;34.63;21.87;98687.25;5032996;28;20104;-80
2023/06/29 10:53:00;;;;;;;2.75;0.98;;;;;;;34.70;22.01;98690.50;5032175;28;20033;-79
2023/06/29 10:55:28;;;;;;;1.10;0.80;;;;;;;34.64;22.03;98689.69;4998594;28;20025;-80
2023/06/29 10:57:58;;;;;;;1.15;0.70;;;;;;;34.64;22.08;98692.41;4999723;28;20533;-80
2023/06/29 11:00:25;;;;;;;2.25;0.90;;;;;;;34.57;22.52;98689.16;5015397;28;20022;-80
2023/06/29 11:02:51;;;;;;;4.80;1.03;;;;;;;34.56;22.09;98676.72;4999653;28;20041;-79
2023/06/29 11:05:17;;;;;;;2.10;0.70;;;;;;;34.54;21.76;98671.56;5015296;28;20036;-80
2023/06/29 11:07:43;;;;;;;1.42;0.80;;;;;;;34.43;21.94;98670.00;4998643;28;20033;-81
2023/06/29 11:10:09;;;;;;;2.42;1.02;;;;;;;34.39;22.13;98671.63;5015011;28;20052;-81
2023/06/29 11:12:38;;;;;;;2.92;0.90;;;;;;;34.33;22.47;98672.72;5014795;28;20469;-80
2023/06/29 11:15:14;;;;;;;2.10;0.77;;;;;;;34.27;22.48;98677.34;4998464;28;20036;-79
2023/06/29 11:17:40;;;;;;;2.28;0.82;;;;;;;34.21;22.56;98668.38;5015411;28;20063;-80
2023/06/29 11:20:06;;;;;;;1.50;0.80;;;;;;;34.14;22.96;98680.59;5033229;28;20033;-82
2023/06/29 11:22:33;;;;;;;1.35;0.70;;;;;;;34.14;22.69;98675.16;5000169;28;20052;-81
2023/06/29 11:24:58;;;;;;;1.50;0.90;;;;;;;34.05;22.45;98675.72;5016893;28;20029;-80
2023/06/29 11:27:24;;;;;;;1.15;0.77;;;;;;;33.94;23.06;98673.28;5030654;28;20425;-80
2023/06/29 11:29:54;;;;;;;2.50;0.77;;;;;;;33.85;22.44;98673.03;5014567;28;20058;-80